Escribe el Código OACI del Aeropuerto

Buscar por Aeropuerto o Ciudad

Información Meteorológica Actual

LEAM | Almería Airport

Almería, Andalusia, Spain

Última Actualización Hace 9 Minutos

Cielo Despejado

16 ºC de Temperatura

Vientos Moderados del SurOeste

Temperatura

16 ºC

Temperatura del Punto de Rocío

11 ºC

Humedad Relativa

72.33 %

Dirección del Viento

SurOeste (230º, Variando entre 200º y 280º)

Velocidad del Viento

22 km/h (12 kt)

Ráfagas

No Hay

Visibilidad

Sin Reducciones de Consideración

Presión Reducida a Nivel del Mar

1017 hPa (Hectopascales)

Capas de Nubes

No Hay

METAR LEAM 071600Z 23012KT 200V280 CAVOK 16/11 Q1017

Pronóstico Meteorológico

LEAM | Almería Airport

Almería, Andalusia, Spain

Pronóstico válido para las próximas 20 Horas

A partir de este momento se espera:

Cielo Despejado

Vientos Moderados del SurOeste

En 4 a 6 horas se espera el comienzo de:

Vientos Leves de Direcciones Variables

En 18 a 20 horas se espera el comienzo de:

Vientos Moderados del SurOeste

Temperatura Máxima

19 ºC en -4 Horas

Temperatura Mínima

11 ºC en 14 Horas

TAF LEAM 071100Z 0712/0812 21010KT CAVOK TX19/0712Z TN11/0806Z BECMG 0720/0722 VRB02KT BECMG 0810/0812 22010KT